sensor_id;sensor_type;location;lat;lon;timestamp;P1;durP1;ratioP1;P2;durP2;ratioP2
41885;SDS011;27567;43.084;25.616;2022-12-29T00:00:59;22.80;;;10.40;;
41885;SDS011;27567;43.084;25.616;2022-12-29T00:03:45;18.95;;;9.77;;
41885;SDS011;27567;43.084;25.616;2022-12-29T00:06:29;21.27;;;9.80;;
41885;SDS011;27567;43.084;25.616;2022-12-29T00:09:13;19.20;;;9.73;;
41885;SDS011;27567;43.084;25.616;2022-12-29T00:11:57;19.30;;;9.18;;
41885;SDS011;27567;43.084;25.616;2022-12-29T00:14:41;17.13;;;8.73;;
41885;SDS011;27567;43.084;25.616;2022-12-29T00:17:44;18.65;;;9.30;;
41885;SDS011;27567;43.084;25.616;2022-12-29T00:20:28;19.02;;;9.77;;
41885;SDS011;27567;43.084;25.616;2022-12-29T00:23:30;16.25;;;8.98;;
41885;SDS011;27567;43.084;25.616;2022-12-29T00:26:33;13.20;;;7.90;;
41885;SDS011;27567;43.084;25.616;2022-12-29T00:29:36;17.77;;;8.13;;
41885;SDS011;27567;43.084;25.616;2022-12-29T00:32:39;13.45;;;7.13;;
41885;SDS011;27567;43.084;25.616;2022-12-29T00:35:51;11.93;;;6.55;;
41885;SDS011;27567;43.084;25.616;2022-12-29T00:38:36;9.82;;;5.57;;
41885;SDS011;27567;43.084;25.616;2022-12-29T00:41:39;11.05;;;6.45;;
41885;SDS011;27567;43.084;25.616;2022-12-29T00:44:42;13.82;;;6.65;;
41885;SDS011;27567;43.084;25.616;2022-12-29T00:47:26;12.20;;;6.97;;
41885;SDS011;27567;43.084;25.616;2022-12-29T00:50:10;18.63;;;8.60;;
41885;SDS011;27567;43.084;25.616;2022-12-29T00:52:54;25.92;;;12.23;;
41885;SDS011;27567;43.084;25.616;2022-12-29T00:55:38;33.00;;;14.43;;
41885;SDS011;27567;43.084;25.616;2022-12-29T00:58:22;23.40;;;11.25;;
41885;SDS011;27567;43.084;25.616;2022-12-29T01:01:06;27.95;;;11.95;;
41885;SDS011;27567;43.084;25.616;2022-12-29T01:03:50;21.35;;;10.10;;
41885;SDS011;27567;43.084;25.616;2022-12-29T01:06:35;14.60;;;7.90;;
41885;SDS011;27567;43.084;25.616;2022-12-29T01:09:19;13.20;;;6.07;;
41885;SDS011;27567;43.084;25.616;2022-12-29T01:12:22;14.20;;;6.30;;
41885;SDS011;27567;43.084;25.616;2022-12-29T01:15:23;13.43;;;6.82;;
41885;SDS011;27567;43.084;25.616;2022-12-29T01:18:07;16.67;;;7.30;;
41885;SDS011;27567;43.084;25.616;2022-12-29T01:20:57;11.82;;;6.75;;
41885;SDS011;27567;43.084;25.616;2022-12-29T01:23:42;14.60;;;6.63;;
41885;SDS011;27567;43.084;25.616;2022-12-29T01:26:26;15.95;;;6.45;;
41885;SDS011;27567;43.084;25.616;2022-12-29T01:29:10;16.63;;;7.45;;
41885;SDS011;27567;43.084;25.616;2022-12-29T01:31:53;14.02;;;7.60;;
41885;SDS011;27567;43.084;25.616;2022-12-29T01:34:37;12.32;;;6.18;;
41885;SDS011;27567;43.084;25.616;2022-12-29T01:37:21;15.95;;;6.78;;
41885;SDS011;27567;43.084;25.616;2022-12-29T01:40:05;13.45;;;7.22;;
41885;SDS011;27567;43.084;25.616;2022-12-29T01:42:49;20.60;;;9.80;;
41885;SDS011;27567;43.084;25.616;2022-12-29T01:45:33;23.55;;;11.20;;
41885;SDS011;27567;43.084;25.616;2022-12-29T01:48:17;28.88;;;10.77;;
41885;SDS011;27567;43.084;25.616;2022-12-29T01:51:02;25.58;;;12.85;;
41885;SDS011;27567;43.084;25.616;2022-12-29T01:53:46;22.90;;;11.90;;
41885;SDS011;27567;43.084;25.616;2022-12-29T01:56:29;29.25;;;13.35;;
41885;SDS011;27567;43.084;25.616;2022-12-29T01:59:17;25.77;;;12.10;;
41885;SDS011;27567;43.084;25.616;2022-12-29T02:02:04;25.55;;;12.40;;
41885;SDS011;27567;43.084;25.616;2022-12-29T02:04:48;22.38;;;11.00;;
41885;SDS011;27567;43.084;25.616;2022-12-29T02:07:32;21.05;;;10.00;;
41885;SDS011;27567;43.084;25.616;2022-12-29T02:10:16;24.02;;;10.45;;
41885;SDS011;27567;43.084;25.616;2022-12-29T02:13:01;20.42;;;10.30;;
41885;SDS011;27567;43.084;25.616;2022-12-29T02:18:43;14.25;;;7.57;;
41885;SDS011;27567;43.084;25.616;2022-12-29T02:51:10;25.90;;;11.60;;
41885;SDS011;27567;43.084;25.616;2022-12-29T02:53:57;26.23;;;11.23;;
41885;SDS011;27567;43.084;25.616;2022-12-29T02:57:01;23.13;;;11.70;;
41885;SDS011;27567;43.084;25.616;2022-12-29T02:59:45;19.75;;;10.30;;
41885;SDS011;27567;43.084;25.616;2022-12-29T03:05:42;15.60;;;7.57;;
41885;SDS011;27567;43.084;25.616;2022-12-29T03:11:13;9.82;;;6.03;;
41885;SDS011;27567;43.084;25.616;2022-12-29T03:14:17;11.15;;;6.47;;
41885;SDS011;27567;43.084;25.616;2022-12-29T03:17:30;10.80;;;6.00;;
41885;SDS011;27567;43.084;25.616;2022-12-29T03:20:19;16.13;;;7.03;;
41885;SDS011;27567;43.084;25.616;2022-12-29T03:23:05;13.20;;;6.75;;
41885;SDS011;27567;43.084;25.616;2022-12-29T03:25:54;15.27;;;8.07;;
41885;SDS011;27567;43.084;25.616;2022-12-29T03:28:41;11.65;;;6.95;;
41885;SDS011;27567;43.084;25.616;2022-12-29T03:31:26;12.77;;;6.72;;
41885;SDS011;27567;43.084;25.616;2022-12-29T03:34:10;14.25;;;7.15;;
41885;SDS011;27567;43.084;25.616;2022-12-29T03:36:59;13.65;;;7.03;;
41885;SDS011;27567;43.084;25.616;2022-12-29T03:39:45;17.07;;;8.60;;
41885;SDS011;27567;43.084;25.616;2022-12-29T03:42:29;21.77;;;9.73;;
41885;SDS011;27567;43.084;25.616;2022-12-29T03:45:14;19.80;;;10.15;;
41885;SDS011;27567;43.084;25.616;2022-12-29T03:47:58;13.38;;;7.38;;
41885;SDS011;27567;43.084;25.616;2022-12-29T03:50:42;17.63;;;8.43;;
41885;SDS011;27567;43.084;25.616;2022-12-29T03:53:26;13.73;;;7.82;;
41885;SDS011;27567;43.084;25.616;2022-12-29T03:56:10;18.02;;;7.20;;
41885;SDS011;27567;43.084;25.616;2022-12-29T03:58:54;17.60;;;8.27;;
41885;SDS011;27567;43.084;25.616;2022-12-29T04:01:38;16.98;;;8.57;;
41885;SDS011;27567;43.084;25.616;2022-12-29T04:04:22;20.80;;;9.60;;
41885;SDS011;27567;43.084;25.616;2022-12-29T04:07:06;17.10;;;8.85;;
41885;SDS011;27567;43.084;25.616;2022-12-29T04:09:50;20.17;;;9.90;;
41885;SDS011;27567;43.084;25.616;2022-12-29T04:12:34;23.13;;;12.25;;
41885;SDS011;27567;43.084;25.616;2022-12-29T04:15:18;25.88;;;11.48;;
41885;SDS011;27567;43.084;25.616;2022-12-29T04:18:02;41.35;;;16.63;;
41885;SDS011;27567;43.084;25.616;2022-12-29T04:20:46;39.70;;;19.42;;
41885;SDS011;27567;43.084;25.616;2022-12-29T04:23:47;36.50;;;15.00;;
41885;SDS011;27567;43.084;25.616;2022-12-29T04:26:31;31.65;;;13.95;;
41885;SDS011;27567;43.084;25.616;2022-12-29T04:29:14;35.95;;;14.85;;
41885;SDS011;27567;43.084;25.616;2022-12-29T04:31:58;47.45;;;17.95;;
41885;SDS011;27567;43.084;25.616;2022-12-29T04:34:42;44.97;;;19.73;;
41885;SDS011;27567;43.084;25.616;2022-12-29T04:37:26;179.00;;;77.15;;
41885;SDS011;27567;43.084;25.616;2022-12-29T04:40:10;94.55;;;43.17;;
41885;SDS011;27567;43.084;25.616;2022-12-29T04:42:54;64.90;;;29.85;;
41885;SDS011;27567;43.084;25.616;2022-12-29T04:45:38;50.55;;;24.80;;
41885;SDS011;27567;43.084;25.616;2022-12-29T04:48:22;48.28;;;20.52;;
41885;SDS011;27567;43.084;25.616;2022-12-29T04:51:06;44.85;;;18.92;;
41885;SDS011;27567;43.084;25.616;2022-12-29T04:53:50;33.85;;;16.17;;
41885;SDS011;27567;43.084;25.616;2022-12-29T04:56:34;33.40;;;14.90;;
41885;SDS011;27567;43.084;25.616;2022-12-29T04:59:18;24.65;;;11.27;;
41885;SDS011;27567;43.084;25.616;2022-12-29T05:02:02;36.85;;;15.80;;
41885;SDS011;27567;43.084;25.616;2022-12-29T05:04:46;28.75;;;13.25;;
41885;SDS011;27567;43.084;25.616;2022-12-29T05:07:30;27.35;;;12.50;;
41885;SDS011;27567;43.084;25.616;2022-12-29T05:10:14;29.80;;;14.98;;
41885;SDS011;27567;43.084;25.616;2022-12-29T05:12:58;29.40;;;13.32;;
41885;SDS011;27567;43.084;25.616;2022-12-29T05:15:45;24.50;;;12.25;;
41885;SDS011;27567;43.084;25.616;2022-12-29T05:18:29;39.20;;;18.42;;
41885;SDS011;27567;43.084;25.616;2022-12-29T05:21:13;30.38;;;16.40;;
41885;SDS011;27567;43.084;25.616;2022-12-29T05:23:57;27.15;;;12.55;;
41885;SDS011;27567;43.084;25.616;2022-12-29T05:26:41;24.58;;;11.50;;
41885;SDS011;27567;43.084;25.616;2022-12-29T05:29:25;30.20;;;14.35;;
41885;SDS011;27567;43.084;25.616;2022-12-29T05:32:08;27.95;;;14.77;;
41885;SDS011;27567;43.084;25.616;2022-12-29T05:34:52;25.95;;;13.60;;
41885;SDS011;27567;43.084;25.616;2022-12-29T05:37:36;34.58;;;14.38;;
41885;SDS011;27567;43.084;25.616;2022-12-29T05:40:20;44.38;;;17.15;;
41885;SDS011;27567;43.084;25.616;2022-12-29T05:43:04;41.22;;;20.55;;
41885;SDS011;27567;43.084;25.616;2022-12-29T05:45:48;40.70;;;18.52;;
41885;SDS011;27567;43.084;25.616;2022-12-29T05:48:33;318.15;;;107.75;;
41885;SDS011;27567;43.084;25.616;2022-12-29T05:54:38;53.60;;;22.85;;
41885;SDS011;27567;43.084;25.616;2022-12-29T05:57:22;57.22;;;22.13;;
41885;SDS011;27567;43.084;25.616;2022-12-29T06:00:06;26.90;;;11.70;;
41885;SDS011;27567;43.084;25.616;2022-12-29T06:02:50;21.85;;;10.60;;
41885;SDS011;27567;43.084;25.616;2022-12-29T06:05:34;22.15;;;10.75;;
41885;SDS011;27567;43.084;25.616;2022-12-29T06:08:18;20.20;;;9.05;;
41885;SDS011;27567;43.084;25.616;2022-12-29T06:11:02;19.52;;;9.52;;
41885;SDS011;27567;43.084;25.616;2022-12-29T06:13:46;21.90;;;10.40;;
41885;SDS011;27567;43.084;25.616;2022-12-29T06:16:30;27.95;;;11.93;;
41885;SDS011;27567;43.084;25.616;2022-12-29T06:19:14;28.48;;;13.15;;
41885;SDS011;27567;43.084;25.616;2022-12-29T06:21:58;31.27;;;15.13;;
41885;SDS011;27567;43.084;25.616;2022-12-29T06:24:42;34.75;;;14.70;;
41885;SDS011;27567;43.084;25.616;2022-12-29T06:27:26;37.97;;;15.88;;
41885;SDS011;27567;43.084;25.616;2022-12-29T06:30:10;41.85;;;15.18;;
41885;SDS011;27567;43.084;25.616;2022-12-29T06:32:54;46.55;;;17.20;;
41885;SDS011;27567;43.084;25.616;2022-12-29T06:35:38;47.60;;;17.90;;
41885;SDS011;27567;43.084;25.616;2022-12-29T06:38:22;37.92;;;16.10;;
41885;SDS011;27567;43.084;25.616;2022-12-29T06:41:06;35.80;;;17.58;;
41885;SDS011;27567;43.084;25.616;2022-12-29T06:43:50;42.05;;;16.30;;
41885;SDS011;27567;43.084;25.616;2022-12-29T06:46:34;42.20;;;15.95;;
41885;SDS011;27567;43.084;25.616;2022-12-29T06:49:18;42.47;;;17.13;;
41885;SDS011;27567;43.084;25.616;2022-12-29T06:52:02;37.13;;;15.07;;
41885;SDS011;27567;43.084;25.616;2022-12-29T06:54:48;24.45;;;12.10;;
41885;SDS011;27567;43.084;25.616;2022-12-29T06:57:32;34.50;;;15.55;;
41885;SDS011;27567;43.084;25.616;2022-12-29T07:00:16;31.75;;;13.65;;
41885;SDS011;27567;43.084;25.616;2022-12-29T07:03:00;28.90;;;14.07;;
41885;SDS011;27567;43.084;25.616;2022-12-29T07:05:44;36.38;;;12.23;;
41885;SDS011;27567;43.084;25.616;2022-12-29T07:08:28;50.05;;;14.38;;
41885;SDS011;27567;43.084;25.616;2022-12-29T07:11:12;26.75;;;14.13;;
41885;SDS011;27567;43.084;25.616;2022-12-29T07:13:56;19.48;;;10.18;;
41885;SDS011;27567;43.084;25.616;2022-12-29T07:16:40;37.42;;;16.20;;
41885;SDS011;27567;43.084;25.616;2022-12-29T07:19:24;31.70;;;14.45;;
41885;SDS011;27567;43.084;25.616;2022-12-29T07:22:09;24.73;;;12.57;;
41885;SDS011;27567;43.084;25.616;2022-12-29T07:24:53;36.67;;;16.00;;
41885;SDS011;27567;43.084;25.616;2022-12-29T07:27:37;29.42;;;13.93;;
41885;SDS011;27567;43.084;25.616;2022-12-29T07:30:21;29.35;;;14.65;;
41885;SDS011;27567;43.084;25.616;2022-12-29T07:33:04;27.80;;;11.20;;
41885;SDS011;27567;43.084;25.616;2022-12-29T07:35:49;38.92;;;14.40;;
41885;SDS011;27567;43.084;25.616;2022-12-29T07:38:32;23.30;;;12.27;;
41885;SDS011;27567;43.084;25.616;2022-12-29T07:41:16;25.10;;;9.95;;
41885;SDS011;27567;43.084;25.616;2022-12-29T07:44:00;22.58;;;11.35;;
41885;SDS011;27567;43.084;25.616;2022-12-29T07:46:44;19.60;;;10.02;;
41885;SDS011;27567;43.084;25.616;2022-12-29T07:49:28;23.08;;;11.73;;
41885;SDS011;27567;43.084;25.616;2022-12-29T07:52:12;21.27;;;9.73;;
41885;SDS011;27567;43.084;25.616;2022-12-29T07:54:56;19.33;;;9.23;;
41885;SDS011;27567;43.084;25.616;2022-12-29T07:57:40;29.90;;;13.63;;
41885;SDS011;27567;43.084;25.616;2022-12-29T08:00:24;35.00;;;14.57;;
41885;SDS011;27567;43.084;25.616;2022-12-29T08:03:08;38.08;;;15.15;;
41885;SDS011;27567;43.084;25.616;2022-12-29T08:05:52;42.90;;;18.55;;
41885;SDS011;27567;43.084;25.616;2022-12-29T08:08:36;36.20;;;16.45;;
41885;SDS011;27567;43.084;25.616;2022-12-29T08:11:20;43.25;;;17.52;;
41885;SDS011;27567;43.084;25.616;2022-12-29T08:14:04;47.70;;;17.20;;
41885;SDS011;27567;43.084;25.616;2022-12-29T08:16:48;36.67;;;17.50;;
41885;SDS011;27567;43.084;25.616;2022-12-29T08:19:32;46.65;;;17.17;;
41885;SDS011;27567;43.084;25.616;2022-12-29T08:22:16;37.20;;;18.77;;
41885;SDS011;27567;43.084;25.616;2022-12-29T08:25:00;41.22;;;18.63;;
41885;SDS011;27567;43.084;25.616;2022-12-29T08:27:44;49.58;;;21.85;;
41885;SDS011;27567;43.084;25.616;2022-12-29T08:30:28;42.35;;;22.58;;
41885;SDS011;27567;43.084;25.616;2022-12-29T08:33:12;58.42;;;27.40;;
41885;SDS011;27567;43.084;25.616;2022-12-29T08:36:00;47.05;;;20.30;;
41885;SDS011;27567;43.084;25.616;2022-12-29T08:38:44;88.35;;;37.90;;
41885;SDS011;27567;43.084;25.616;2022-12-29T08:41:28;84.75;;;41.15;;
41885;SDS011;27567;43.084;25.616;2022-12-29T08:44:12;72.55;;;34.88;;
41885;SDS011;27567;43.084;25.616;2022-12-29T08:46:56;68.75;;;33.35;;
41885;SDS011;27567;43.084;25.616;2022-12-29T08:49:40;69.00;;;32.17;;
41885;SDS011;27567;43.084;25.616;2022-12-29T08:52:24;62.72;;;29.60;;
41885;SDS011;27567;43.084;25.616;2022-12-29T08:55:07;66.00;;;29.33;;
41885;SDS011;27567;43.084;25.616;2022-12-29T08:57:52;59.25;;;27.67;;
41885;SDS011;27567;43.084;25.616;2022-12-29T09:00:36;65.03;;;30.80;;
41885;SDS011;27567;43.084;25.616;2022-12-29T09:03:20;52.28;;;24.00;;
41885;SDS011;27567;43.084;25.616;2022-12-29T09:06:04;44.55;;;21.10;;
41885;SDS011;27567;43.084;25.616;2022-12-29T09:08:48;32.83;;;14.52;;
41885;SDS011;27567;43.084;25.616;2022-12-29T09:11:32;28.65;;;13.63;;
41885;SDS011;27567;43.084;25.616;2022-12-29T09:14:16;27.40;;;13.98;;
41885;SDS011;27567;43.084;25.616;2022-12-29T09:17:00;32.42;;;14.70;;
41885;SDS011;27567;43.084;25.616;2022-12-29T09:20:03;36.75;;;17.73;;
41885;SDS011;27567;43.084;25.616;2022-12-29T09:22:47;40.55;;;19.63;;
41885;SDS011;27567;43.084;25.616;2022-12-29T09:25:31;60.63;;;27.15;;
41885;SDS011;27567;43.084;25.616;2022-12-29T09:28:15;44.10;;;23.67;;
41885;SDS011;27567;43.084;25.616;2022-12-29T09:30:59;28.08;;;13.07;;
41885;SDS011;27567;43.084;25.616;2022-12-29T09:33:43;18.58;;;9.32;;
41885;SDS011;27567;43.084;25.616;2022-12-29T09:36:27;22.65;;;9.88;;
41885;SDS011;27567;43.084;25.616;2022-12-29T09:39:12;24.70;;;9.20;;
41885;SDS011;27567;43.084;25.616;2022-12-29T09:44:48;17.73;;;9.80;;
41885;SDS011;27567;43.084;25.616;2022-12-29T09:47:35;25.40;;;11.40;;
41885;SDS011;27567;43.084;25.616;2022-12-29T09:50:22;23.17;;;11.38;;
41885;SDS011;27567;43.084;25.616;2022-12-29T09:53:10;17.88;;;9.70;;
41885;SDS011;27567;43.084;25.616;2022-12-29T09:58:44;19.73;;;10.50;;
41885;SDS011;27567;43.084;25.616;2022-12-29T10:01:32;23.77;;;13.05;;
41885;SDS011;27567;43.084;25.616;2022-12-29T10:04:17;22.30;;;11.95;;
41885;SDS011;27567;43.084;25.616;2022-12-29T10:07:08;21.27;;;12.30;;
41885;SDS011;27567;43.084;25.616;2022-12-29T10:10:01;27.65;;;12.38;;
41885;SDS011;27567;43.084;25.616;2022-12-29T10:13:21;23.58;;;11.65;;
41885;SDS011;27567;43.084;25.616;2022-12-29T10:24:34;31.15;;;13.77;;
41885;SDS011;27567;43.084;25.616;2022-12-29T10:27:18;24.25;;;12.93;;
41885;SDS011;27567;43.084;25.616;2022-12-29T10:30:02;18.92;;;11.60;;
41885;SDS011;27567;43.084;25.616;2022-12-29T10:33:00;19.17;;;10.98;;
41885;SDS011;27567;43.084;25.616;2022-12-29T10:35:45;24.20;;;13.40;;
41885;SDS011;27567;43.084;25.616;2022-12-29T10:41:21;22.30;;;13.60;;
41885;SDS011;27567;43.084;25.616;2022-12-29T10:44:09;19.10;;;12.05;;
41885;SDS011;27567;43.084;25.616;2022-12-29T10:46:59;19.63;;;12.20;;
41885;SDS011;27567;43.084;25.616;2022-12-29T10:49:45;29.25;;;12.38;;
41885;SDS011;27567;43.084;25.616;2022-12-29T10:52:29;18.63;;;11.98;;
41885;SDS011;27567;43.084;25.616;2022-12-29T10:55:19;24.05;;;11.68;;
41885;SDS011;27567;43.084;25.616;2022-12-29T10:58:06;22.95;;;12.30;;
41885;SDS011;27567;43.084;25.616;2022-12-29T11:00:51;17.17;;;11.45;;
41885;SDS011;27567;43.084;25.616;2022-12-29T11:03:41;22.42;;;11.85;;
41885;SDS011;27567;43.084;25.616;2022-12-29T11:06:29;19.80;;;11.55;;
41885;SDS011;27567;43.084;25.616;2022-12-29T11:09:19;18.23;;;11.20;;
41885;SDS011;27567;43.084;25.616;2022-12-29T11:17:53;19.95;;;11.77;;
41885;SDS011;27567;43.084;25.616;2022-12-29T11:20:40;25.67;;;12.10;;
41885;SDS011;27567;43.084;25.616;2022-12-29T11:23:36;17.98;;;11.00;;
41885;SDS011;27567;43.084;25.616;2022-12-29T11:26:21;19.50;;;11.32;;
41885;SDS011;27567;43.084;25.616;2022-12-29T11:31:56;17.13;;;10.30;;
41885;SDS011;27567;43.084;25.616;2022-12-29T11:34:42;15.27;;;10.35;;
41885;SDS011;27567;43.084;25.616;2022-12-29T11:40:17;15.18;;;10.95;;
41885;SDS011;27567;43.084;25.616;2022-12-29T11:43:02;16.77;;;10.77;;
41885;SDS011;27567;43.084;25.616;2022-12-29T11:45:47;18.23;;;12.38;;
41885;SDS011;27567;43.084;25.616;2022-12-29T11:48:32;16.08;;;11.73;;
41885;SDS011;27567;43.084;25.616;2022-12-29T11:51:21;19.38;;;11.07;;
41885;SDS011;27567;43.084;25.616;2022-12-29T11:54:05;18.13;;;11.68;;
41885;SDS011;27567;43.084;25.616;2022-12-29T11:56:50;18.40;;;13.00;;
41885;SDS011;27567;43.084;25.616;2022-12-29T12:00:09;20.73;;;11.77;;
41885;SDS011;27567;43.084;25.616;2022-12-29T12:02:48;18.92;;;11.68;;
41885;SDS011;27567;43.084;25.616;2022-12-29T12:05:40;21.60;;;12.20;;
41885;SDS011;27567;43.084;25.616;2022-12-29T12:08:31;17.23;;;11.35;;
41885;SDS011;27567;43.084;25.616;2022-12-29T12:11:18;19.63;;;12.95;;
41885;SDS011;27567;43.084;25.616;2022-12-29T12:18:08;16.63;;;12.18;;
41885;SDS011;27567;43.084;25.616;2022-12-29T12:34:28;23.80;;;12.65;;
41885;SDS011;27567;43.084;25.616;2022-12-29T12:59:49;22.05;;;12.80;;
41885;SDS011;27567;43.084;25.616;2022-12-29T13:11:13;20.75;;;12.15;;
41885;SDS011;27567;43.084;25.616;2022-12-29T13:17:02;20.15;;;10.75;;
41885;SDS011;27567;43.084;25.616;2022-12-29T13:20:15;21.50;;;11.30;;
41885;SDS011;27567;43.084;25.616;2022-12-29T13:23:08;19.52;;;11.63;;
41885;SDS011;27567;43.084;25.616;2022-12-29T13:29:10;16.30;;;9.85;;
41885;SDS011;27567;43.084;25.616;2022-12-29T13:35:19;18.90;;;11.02;;
41885;SDS011;27567;43.084;25.616;2022-12-29T13:41:00;19.85;;;11.25;;
41885;SDS011;27567;43.084;25.616;2022-12-29T13:43:45;22.55;;;10.90;;
41885;SDS011;27567;43.084;25.616;2022-12-29T13:46:41;19.77;;;11.88;;
41885;SDS011;27567;43.084;25.616;2022-12-29T13:49:25;16.83;;;10.50;;
41885;SDS011;27567;43.084;25.616;2022-12-29T13:52:16;21.75;;;10.68;;
41885;SDS011;27567;43.084;25.616;2022-12-29T14:00:52;15.50;;;10.10;;
41885;SDS011;27567;43.084;25.616;2022-12-29T14:03:48;23.55;;;11.40;;
41885;SDS011;27567;43.084;25.616;2022-12-29T14:06:33;22.70;;;11.02;;
41885;SDS011;27567;43.084;25.616;2022-12-29T14:12:40;19.58;;;10.32;;
41885;SDS011;27567;43.084;25.616;2022-12-29T14:15:24;15.50;;;9.32;;
41885;SDS011;27567;43.084;25.616;2022-12-29T14:23:44;19.10;;;9.85;;
41885;SDS011;27567;43.084;25.616;2022-12-29T14:29:16;14.32;;;8.68;;
41885;SDS011;27567;43.084;25.616;2022-12-29T14:38:31;24.83;;;10.93;;
41885;SDS011;27567;43.084;25.616;2022-12-29T14:41:15;18.48;;;10.73;;
41885;SDS011;27567;43.084;25.616;2022-12-29T14:44:01;18.55;;;10.13;;
41885;SDS011;27567;43.084;25.616;2022-12-29T14:46:47;22.95;;;11.75;;
41885;SDS011;27567;43.084;25.616;2022-12-29T14:49:33;17.80;;;10.63;;
41885;SDS011;27567;43.084;25.616;2022-12-29T14:57:51;24.88;;;11.20;;
41885;SDS011;27567;43.084;25.616;2022-12-29T15:00:37;17.25;;;10.25;;
41885;SDS011;27567;43.084;25.616;2022-12-29T15:03:28;19.25;;;10.32;;
41885;SDS011;27567;43.084;25.616;2022-12-29T15:14:54;21.38;;;10.75;;
41885;SDS011;27567;43.084;25.616;2022-12-29T15:17:38;18.73;;;10.93;;
41885;SDS011;27567;43.084;25.616;2022-12-29T15:23:10;22.45;;;10.85;;
41885;SDS011;27567;43.084;25.616;2022-12-29T15:25:55;18.85;;;10.35;;
41885;SDS011;27567;43.084;25.616;2022-12-29T15:28:41;18.50;;;11.10;;
41885;SDS011;27567;43.084;25.616;2022-12-29T15:31:25;18.83;;;10.60;;
41885;SDS011;27567;43.084;25.616;2022-12-29T15:34:10;30.08;;;11.50;;
41885;SDS011;27567;43.084;25.616;2022-12-29T15:36:55;18.23;;;10.30;;
41885;SDS011;27567;43.084;25.616;2022-12-29T15:39:39;33.72;;;17.23;;
41885;SDS011;27567;43.084;25.616;2022-12-29T15:45:11;21.63;;;13.32;;
41885;SDS011;27567;43.084;25.616;2022-12-29T15:47:55;29.52;;;14.90;;
41885;SDS011;27567;43.084;25.616;2022-12-29T15:50:40;26.77;;;15.30;;
41885;SDS011;27567;43.084;25.616;2022-12-29T15:53:26;20.10;;;10.95;;
41885;SDS011;27567;43.084;25.616;2022-12-29T15:56:11;23.20;;;13.43;;
41885;SDS011;27567;43.084;25.616;2022-12-29T15:58:56;27.65;;;12.85;;
41885;SDS011;27567;43.084;25.616;2022-12-29T16:01:39;26.20;;;13.02;;
41885;SDS011;27567;43.084;25.616;2022-12-29T16:04:26;26.48;;;14.73;;
41885;SDS011;27567;43.084;25.616;2022-12-29T16:10:21;67.60;;;31.95;;
41885;SDS011;27567;43.084;25.616;2022-12-29T16:13:26;49.45;;;23.77;;
41885;SDS011;27567;43.084;25.616;2022-12-29T16:16:13;48.85;;;26.45;;
41885;SDS011;27567;43.084;25.616;2022-12-29T16:18:59;53.10;;;28.27;;
41885;SDS011;27567;43.084;25.616;2022-12-29T16:21:45;56.05;;;28.35;;
41885;SDS011;27567;43.084;25.616;2022-12-29T16:24:30;58.17;;;28.13;;
41885;SDS011;27567;43.084;25.616;2022-12-29T16:30:06;79.43;;;34.22;;
41885;SDS011;27567;43.084;25.616;2022-12-29T16:32:52;79.60;;;35.65;;
41885;SDS011;27567;43.084;25.616;2022-12-29T16:35:45;118.20;;;50.10;;
41885;SDS011;27567;43.084;25.616;2022-12-29T16:38:33;144.32;;;55.20;;
41885;SDS011;27567;43.084;25.616;2022-12-29T16:41:29;88.63;;;42.13;;
41885;SDS011;27567;43.084;25.616;2022-12-29T16:44:21;60.20;;;26.30;;
41885;SDS011;27567;43.084;25.616;2022-12-29T16:49:55;47.15;;;22.77;;
41885;SDS011;27567;43.084;25.616;2022-12-29T16:52:54;83.55;;;38.05;;
41885;SDS011;27567;43.084;25.616;2022-12-29T16:55:38;72.50;;;35.58;;
41885;SDS011;27567;43.084;25.616;2022-12-29T16:58:29;62.78;;;32.15;;
41885;SDS011;27567;43.084;25.616;2022-12-29T17:01:15;96.68;;;46.85;;
41885;SDS011;27567;43.084;25.616;2022-12-29T17:04:05;99.03;;;49.10;;
41885;SDS011;27567;43.084;25.616;2022-12-29T17:06:49;100.15;;;46.17;;
41885;SDS011;27567;43.084;25.616;2022-12-29T17:09:33;90.00;;;43.85;;
41885;SDS011;27567;43.084;25.616;2022-12-29T17:12:18;80.57;;;40.20;;
41885;SDS011;27567;43.084;25.616;2022-12-29T17:17:49;64.18;;;31.30;;
41885;SDS011;27567;43.084;25.616;2022-12-29T17:20:35;67.18;;;31.42;;
41885;SDS011;27567;43.084;25.616;2022-12-29T17:23:18;76.60;;;34.35;;
41885;SDS011;27567;43.084;25.616;2022-12-29T17:26:02;72.05;;;36.45;;
41885;SDS011;27567;43.084;25.616;2022-12-29T17:28:46;72.88;;;35.20;;
41885;SDS011;27567;43.084;25.616;2022-12-29T17:31:30;82.55;;;39.20;;
41885;SDS011;27567;43.084;25.616;2022-12-29T17:34:14;85.20;;;38.17;;
41885;SDS011;27567;43.084;25.616;2022-12-29T17:36:58;71.65;;;34.45;;
41885;SDS011;27567;43.084;25.616;2022-12-29T17:39:42;77.47;;;39.70;;
41885;SDS011;27567;43.084;25.616;2022-12-29T17:42:26;74.35;;;38.13;;
41885;SDS011;27567;43.084;25.616;2022-12-29T17:45:20;87.55;;;41.45;;
41885;SDS011;27567;43.084;25.616;2022-12-29T17:48:07;105.88;;;46.45;;
41885;SDS011;27567;43.084;25.616;2022-12-29T17:50:53;104.37;;;47.40;;
41885;SDS011;27567;43.084;25.616;2022-12-29T17:53:40;112.00;;;51.65;;
41885;SDS011;27567;43.084;25.616;2022-12-29T17:56:24;85.63;;;40.95;;
41885;SDS011;27567;43.084;25.616;2022-12-29T17:59:10;77.07;;;38.97;;
41885;SDS011;27567;43.084;25.616;2022-12-29T18:01:55;81.38;;;38.45;;
41885;SDS011;27567;43.084;25.616;2022-12-29T18:04:39;58.17;;;28.40;;
41885;SDS011;27567;43.084;25.616;2022-12-29T18:07:24;52.60;;;27.58;;
41885;SDS011;27567;43.084;25.616;2022-12-29T18:10:09;59.60;;;27.48;;
41885;SDS011;27567;43.084;25.616;2022-12-29T18:12:54;64.13;;;31.80;;
41885;SDS011;27567;43.084;25.616;2022-12-29T18:15:38;59.42;;;29.27;;
41885;SDS011;27567;43.084;25.616;2022-12-29T18:18:23;46.10;;;24.42;;
41885;SDS011;27567;43.084;25.616;2022-12-29T18:21:13;43.88;;;22.48;;
41885;SDS011;27567;43.084;25.616;2022-12-29T18:23:57;49.27;;;23.13;;
41885;SDS011;27567;43.084;25.616;2022-12-29T18:26:41;37.80;;;20.13;;
41885;SDS011;27567;43.084;25.616;2022-12-29T18:29:25;48.05;;;23.27;;
41885;SDS011;27567;43.084;25.616;2022-12-29T18:32:10;50.20;;;23.38;;
41885;SDS011;27567;43.084;25.616;2022-12-29T18:34:54;47.10;;;23.13;;
41885;SDS011;27567;43.084;25.616;2022-12-29T18:37:38;43.58;;;22.20;;
41885;SDS011;27567;43.084;25.616;2022-12-29T18:40:22;41.13;;;20.52;;
41885;SDS011;27567;43.084;25.616;2022-12-29T18:43:06;41.08;;;19.48;;
41885;SDS011;27567;43.084;25.616;2022-12-29T18:45:50;29.70;;;13.85;;
41885;SDS011;27567;43.084;25.616;2022-12-29T18:48:34;27.42;;;15.00;;
41885;SDS011;27567;43.084;25.616;2022-12-29T18:51:19;22.98;;;12.73;;
41885;SDS011;27567;43.084;25.616;2022-12-29T18:54:03;23.60;;;13.60;;
41885;SDS011;27567;43.084;25.616;2022-12-29T18:56:47;26.10;;;12.73;;
41885;SDS011;27567;43.084;25.616;2022-12-29T18:59:31;24.98;;;13.52;;
41885;SDS011;27567;43.084;25.616;2022-12-29T19:02:15;27.23;;;14.27;;
41885;SDS011;27567;43.084;25.616;2022-12-29T19:05:00;28.45;;;14.57;;
41885;SDS011;27567;43.084;25.616;2022-12-29T19:07:44;30.48;;;14.13;;